sensor_id;sensor_type;location;lat;lon;timestamp;temperature;humidity
1956;DHT22;978;48.314;11.562;2024-03-23T00:53:55;21.00;66.30
1956;DHT22;978;48.314;11.562;2024-03-23T00:56:22;21.00;66.30
1956;DHT22;978;48.314;11.562;2024-03-23T00:58:50;20.90;66.20
1956;DHT22;978;48.314;11.562;2024-03-23T01:01:18;20.90;66.20
1956;DHT22;978;48.314;11.562;2024-03-23T01:03:45;21.00;66.10
1956;DHT22;978;48.314;11.562;2024-03-23T01:06:12;20.90;66.10
1956;DHT22;978;48.314;11.562;2024-03-23T01:08:40;20.90;66.10
1956;DHT22;978;48.314;11.562;2024-03-23T01:11:08;20.90;65.60
1956;DHT22;978;48.314;11.562;2024-03-23T01:13:36;20.90;66.10
1956;DHT22;978;48.314;11.562;2024-03-23T01:16:03;20.90;66.10
1956;DHT22;978;48.314;11.562;2024-03-23T01:18:31;20.90;66.10
1956;DHT22;978;48.314;11.562;2024-03-23T01:21:00;21.00;66.10
1956;DHT22;978;48.314;11.562;2024-03-23T01:23:28;20.90;66.10
1956;DHT22;978;48.314;11.562;2024-03-23T01:25:55;20.90;66.00
1956;DHT22;978;48.314;11.562;2024-03-23T01:28:25;20.90;66.00
1956;DHT22;978;48.314;11.562;2024-03-23T01:30:52;20.90;66.00
1956;DHT22;978;48.314;11.562;2024-03-23T01:33:21;21.00;66.00
1956;DHT22;978;48.314;11.562;2024-03-23T01:35:48;21.00;66.00
1956;DHT22;978;48.314;11.562;2024-03-23T01:38:16;20.90;65.90
1956;DHT22;978;48.314;11.562;2024-03-23T01:40:44;21.00;66.00
1956;DHT22;978;48.314;11.562;2024-03-23T01:43:12;20.90;65.90
1956;DHT22;978;48.314;11.562;2024-03-23T01:45:41;20.90;65.90
1956;DHT22;978;48.314;11.562;2024-03-23T01:48:08;21.00;66.00
1956;DHT22;978;48.314;11.562;2024-03-23T01:50:35;20.90;65.90
1956;DHT22;978;48.314;11.562;2024-03-23T01:53:04;21.00;65.90
1956;DHT22;978;48.314;11.562;2024-03-23T01:55:33;21.00;65.90
1956;DHT22;978;48.314;11.562;2024-03-23T01:58:01;20.90;65.80
1956;DHT22;978;48.314;11.562;2024-03-23T02:00:28;21.00;65.90
1956;DHT22;978;48.314;11.562;2024-03-23T02:02:58;21.00;65.90
1956;DHT22;978;48.314;11.562;2024-03-23T02:05:25;21.00;65.90
1956;DHT22;978;48.314;11.562;2024-03-23T02:07:53;20.90;65.80
1956;DHT22;978;48.314;11.562;2024-03-23T02:10:20;21.00;65.80
1956;DHT22;978;48.314;11.562;2024-03-23T02:12:49;20.90;65.80
1956;DHT22;978;48.314;11.562;2024-03-23T02:15:16;20.90;65.80
1956;DHT22;978;48.314;11.562;2024-03-23T02:17:44;20.90;65.80
1956;DHT22;978;48.314;11.562;2024-03-23T02:20:12;21.00;65.80
1956;DHT22;978;48.314;11.562;2024-03-23T02:22:39;20.90;65.70
1956;DHT22;978;48.314;11.562;2024-03-23T02:25:07;20.90;65.70
1956;DHT22;978;48.314;11.562;2024-03-23T02:27:35;21.00;65.80
1956;DHT22;978;48.314;11.562;2024-03-23T02:30:03;21.00;65.80
1956;DHT22;978;48.314;11.562;2024-03-23T02:32:30;21.00;65.80
1956;DHT22;978;48.314;11.562;2024-03-23T02:34:58;20.90;65.70
1956;DHT22;978;48.314;11.562;2024-03-23T02:37:26;21.00;65.70
1956;DHT22;978;48.314;11.562;2024-03-23T02:39:53;21.00;65.80
1956;DHT22;978;48.314;11.562;2024-03-23T02:42:23;20.90;65.60
1956;DHT22;978;48.314;11.562;2024-03-23T02:44:50;20.90;65.70
1956;DHT22;978;48.314;11.562;2024-03-23T02:47:18;21.00;65.70
1956;DHT22;978;48.314;11.562;2024-03-23T02:49:45;21.00;65.70
1956;DHT22;978;48.314;11.562;2024-03-23T02:52:13;20.90;65.60
1956;DHT22;978;48.314;11.562;2024-03-23T02:54:40;20.90;65.00
1956;DHT22;978;48.314;11.562;2024-03-23T02:57:11;20.90;65.60
1956;DHT22;978;48.314;11.562;2024-03-23T02:59:40;21.00;65.60
1956;DHT22;978;48.314;11.562;2024-03-23T03:02:08;20.90;65.60
1956;DHT22;978;48.314;11.562;2024-03-23T03:04:35;20.90;65.50
1956;DHT22;978;48.314;11.562;2024-03-23T03:07:03;21.00;65.60
1956;DHT22;978;48.314;11.562;2024-03-23T03:09:30;20.90;66.10
1956;DHT22;978;48.314;11.562;2024-03-23T03:12:01;20.90;65.50
1956;DHT22;978;48.314;11.562;2024-03-23T03:14:28;20.90;65.50
1956;DHT22;978;48.314;11.562;2024-03-23T03:16:58;20.90;65.50
1956;DHT22;978;48.314;11.562;2024-03-23T03:19:24;20.90;65.50
1956;DHT22;978;48.314;11.562;2024-03-23T03:21:52;20.90;65.50
1956;DHT22;978;48.314;11.562;2024-03-23T03:24:20;21.00;65.50
1956;DHT22;978;48.314;11.562;2024-03-23T03:26:48;21.00;65.50
1956;DHT22;978;48.314;11.562;2024-03-23T03:29:16;21.00;65.50
1956;DHT22;978;48.314;11.562;2024-03-23T03:31:44;20.90;65.50
1956;DHT22;978;48.314;11.562;2024-03-23T03:34:13;20.90;65.40
1956;DHT22;978;48.314;11.562;2024-03-23T03:36:41;21.00;65.50
1956;DHT22;978;48.314;11.562;2024-03-23T03:39:07;20.90;65.40
1956;DHT22;978;48.314;11.562;2024-03-23T03:41:37;21.00;65.50
1956;DHT22;978;48.314;11.562;2024-03-23T03:44:05;20.90;65.40
1956;DHT22;978;48.314;11.562;2024-03-23T03:46:32;20.90;65.40
1956;DHT22;978;48.314;11.562;2024-03-23T03:49:00;20.90;65.30
1956;DHT22;978;48.314;11.562;2024-03-23T03:51:31;20.90;65.30
1956;DHT22;978;48.314;11.562;2024-03-23T03:53:59;21.00;65.40
1956;DHT22;978;48.314;11.562;2024-03-23T03:56:28;20.90;65.30
1956;DHT22;978;48.314;11.562;2024-03-23T03:58:55;20.90;65.30
1956;DHT22;978;48.314;11.562;2024-03-23T04:01:23;20.90;65.30
1956;DHT22;978;48.314;11.562;2024-03-23T04:03:49;20.90;65.30
1956;DHT22;978;48.314;11.562;2024-03-23T04:06:19;20.90;65.30
1956;DHT22;978;48.314;11.562;2024-03-23T04:08:47;20.90;65.30
1956;DHT22;978;48.314;11.562;2024-03-23T04:11:15;21.00;65.40
1956;DHT22;978;48.314;11.562;2024-03-23T04:13:43;20.90;65.30
1956;DHT22;978;48.314;11.562;2024-03-23T04:16:10;20.90;65.30
1956;DHT22;978;48.314;11.562;2024-03-23T04:18:37;20.90;65.20
1956;DHT22;978;48.314;11.562;2024-03-23T04:21:04;21.00;65.30
1956;DHT22;978;48.314;11.562;2024-03-23T04:23:31;20.90;65.20
1956;DHT22;978;48.314;11.562;2024-03-23T04:26:07;20.90;65.20
1956;DHT22;978;48.314;11.562;2024-03-23T04:28:34;21.00;64.80
1956;DHT22;978;48.314;11.562;2024-03-23T04:31:03;21.00;65.30
1956;DHT22;978;48.314;11.562;2024-03-23T04:33:30;20.90;65.20
1956;DHT22;978;48.314;11.562;2024-03-23T04:35:59;21.00;65.30
1956;DHT22;978;48.314;11.562;2024-03-23T04:40:55;20.90;64.80
1956;DHT22;978;48.314;11.562;2024-03-23T04:43:25;20.90;65.30
1956;DHT22;978;48.314;11.562;2024-03-23T04:45:55;20.90;65.80
1956;DHT22;978;48.314;11.562;2024-03-23T04:48:24;20.90;65.20
1956;DHT22;978;48.314;11.562;2024-03-23T04:50:55;20.90;65.20
1956;DHT22;978;48.314;11.562;2024-03-23T04:53:25;21.00;65.30
1956;DHT22;978;48.314;11.562;2024-03-23T04:55:55;20.90;65.20
1956;DHT22;978;48.314;11.562;2024-03-23T04:58:25;21.00;65.30
1956;DHT22;978;48.314;11.562;2024-03-23T05:00:54;20.90;65.80
1956;DHT22;978;48.314;11.562;2024-03-23T05:03:24;20.90;65.20
1956;DHT22;978;48.314;11.562;2024-03-23T05:05:53;21.00;65.30
1956;DHT22;978;48.314;11.562;2024-03-23T05:08:20;20.90;65.20
1956;DHT22;978;48.314;11.562;2024-03-23T05:10:48;20.90;65.20
1956;DHT22;978;48.314;11.562;2024-03-23T05:13:14;20.90;65.20
1956;DHT22;978;48.314;11.562;2024-03-23T05:15:44;20.90;65.20
1956;DHT22;978;48.314;11.562;2024-03-23T05:18:10;20.90;65.20
1956;DHT22;978;48.314;11.562;2024-03-23T05:20:40;20.90;65.20
1956;DHT22;978;48.314;11.562;2024-03-23T05:23:06;20.90;65.20
1956;DHT22;978;48.314;11.562;2024-03-23T05:25:34;20.90;65.20
1956;DHT22;978;48.314;11.562;2024-03-23T05:28:01;20.90;65.20
1956;DHT22;978;48.314;11.562;2024-03-23T05:30:28;20.90;65.20
1956;DHT22;978;48.314;11.562;2024-03-23T05:32:57;20.90;65.20
1956;DHT22;978;48.314;11.562;2024-03-23T05:35:25;20.90;65.20
1956;DHT22;978;48.314;11.562;2024-03-23T05:37:52;21.00;65.20
1956;DHT22;978;48.314;11.562;2024-03-23T05:40:20;20.90;65.20
1956;DHT22;978;48.314;11.562;2024-03-23T05:42:47;20.90;65.20
1956;DHT22;978;48.314;11.562;2024-03-23T05:45:15;20.90;65.20
1956;DHT22;978;48.314;11.562;2024-03-23T05:47:45;20.90;64.70
1956;DHT22;978;48.314;11.562;2024-03-23T05:50:16;20.90;65.20
1956;DHT22;978;48.314;11.562;2024-03-23T05:52:44;20.90;65.20
1956;DHT22;978;48.314;11.562;2024-03-23T05:55:11;20.90;65.10
1956;DHT22;978;48.314;11.562;2024-03-23T05:57:38;20.90;65.10
1956;DHT22;978;48.314;11.562;2024-03-23T06:00:06;20.90;65.80
1956;DHT22;978;48.314;11.562;2024-03-23T06:02:37;20.90;65.20
1956;DHT22;978;48.314;11.562;2024-03-23T06:05:05;20.90;65.10
1956;DHT22;978;48.314;11.562;2024-03-23T06:07:35;20.90;65.20
1956;DHT22;978;48.314;11.562;2024-03-23T06:10:04;20.90;65.10
1956;DHT22;978;48.314;11.562;2024-03-23T06:12:32;20.90;65.10
1956;DHT22;978;48.314;11.562;2024-03-23T06:15:00;20.90;65.10
1956;DHT22;978;48.314;11.562;2024-03-23T06:17:28;20.90;65.20
1956;DHT22;978;48.314;11.562;2024-03-23T06:19:55;20.90;65.10
1956;DHT22;978;48.314;11.562;2024-03-23T06:22:22;20.90;64.60
1956;DHT22;978;48.314;11.562;2024-03-23T06:24:52;20.90;65.10
1956;DHT22;978;48.314;11.562;2024-03-23T06:27:20;20.90;65.10
1956;DHT22;978;48.314;11.562;2024-03-23T06:29:48;20.90;65.10
1956;DHT22;978;48.314;11.562;2024-03-23T06:32:15;20.90;65.10
1956;DHT22;978;48.314;11.562;2024-03-23T06:34:42;20.90;65.10
1956;DHT22;978;48.314;11.562;2024-03-23T06:37:08;20.90;65.10
1956;DHT22;978;48.314;11.562;2024-03-23T06:39:36;20.90;65.10
1956;DHT22;978;48.314;11.562;2024-03-23T06:42:05;20.90;65.10
1956;DHT22;978;48.314;11.562;2024-03-23T06:44:33;20.90;65.10
1956;DHT22;978;48.314;11.562;2024-03-23T06:47:01;20.90;65.10
1956;DHT22;978;48.314;11.562;2024-03-23T06:49:29;20.90;65.10
1956;DHT22;978;48.314;11.562;2024-03-23T06:51:56;20.90;65.10
1956;DHT22;978;48.314;11.562;2024-03-23T06:54:26;20.90;65.00
1956;DHT22;978;48.314;11.562;2024-03-23T06:56:53;20.90;65.40
1956;DHT22;978;48.314;11.562;2024-03-23T06:59:23;20.90;64.80
1956;DHT22;978;48.314;11.562;2024-03-23T07:01:50;20.90;65.00
1956;DHT22;978;48.314;11.562;2024-03-23T07:04:18;20.90;64.90
1956;DHT22;978;48.314;11.562;2024-03-23T07:06:46;20.20;64.40
1956;DHT22;978;48.314;11.562;2024-03-23T07:09:17;20.90;64.70
1956;DHT22;978;48.314;11.562;2024-03-23T07:11:44;20.90;65.00
1956;DHT22;978;48.314;11.562;2024-03-23T07:14:13;20.90;64.40
1956;DHT22;978;48.314;11.562;2024-03-23T07:16:41;20.90;65.00
1956;DHT22;978;48.314;11.562;2024-03-23T07:19:10;20.90;65.00
1956;DHT22;978;48.314;11.562;2024-03-23T07:21:43;20.90;64.90
1956;DHT22;978;48.314;11.562;2024-03-23T07:24:10;20.90;65.00
1956;DHT22;978;48.314;11.562;2024-03-23T07:26:41;20.90;64.80
1956;DHT22;978;48.314;11.562;2024-03-23T07:29:09;20.90;64.90
1956;DHT22;978;48.314;11.562;2024-03-23T07:31:36;20.90;64.90
1956;DHT22;978;48.314;11.562;2024-03-23T07:34:05;20.90;64.50
1956;DHT22;978;48.314;11.562;2024-03-23T07:36:33;20.90;65.00
1956;DHT22;978;48.314;11.562;2024-03-23T07:39:01;20.90;65.00
1956;DHT22;978;48.314;11.562;2024-03-23T07:41:32;20.90;65.10
1956;DHT22;978;48.314;11.562;2024-03-23T07:43:59;20.90;65.10
1956;DHT22;978;48.314;11.562;2024-03-23T07:46:28;20.90;64.60
1956;DHT22;978;48.314;11.562;2024-03-23T07:48:55;20.90;65.40
1956;DHT22;978;48.314;11.562;2024-03-23T07:51:25;20.90;65.20
1956;DHT22;978;48.314;11.562;2024-03-23T07:53:52;20.90;65.20
1956;DHT22;978;48.314;11.562;2024-03-23T07:56:20;20.90;65.20
1956;DHT22;978;48.314;11.562;2024-03-23T07:58:48;20.90;65.20
1956;DHT22;978;48.314;11.562;2024-03-23T08:01:17;20.90;65.20
1956;DHT22;978;48.314;11.562;2024-03-23T08:03:44;20.90;65.20
1956;DHT22;978;48.314;11.562;2024-03-23T08:06:13;20.90;65.30
1956;DHT22;978;48.314;11.562;2024-03-23T08:08:43;20.90;65.30
1956;DHT22;978;48.314;11.562;2024-03-23T08:11:12;20.90;65.20
1956;DHT22;978;48.314;11.562;2024-03-23T08:13:41;20.90;65.40
1956;DHT22;978;48.314;11.562;2024-03-23T08:16:10;20.90;65.00
1956;DHT22;978;48.314;11.562;2024-03-23T08:18:39;20.90;65.50
1956;DHT22;978;48.314;11.562;2024-03-23T08:23:36;20.90;64.90
1956;DHT22;978;48.314;11.562;2024-03-23T08:26:06;20.90;65.40
1956;DHT22;978;48.314;11.562;2024-03-23T08:28:37;20.90;65.40
1956;DHT22;978;48.314;11.562;2024-03-23T08:31:06;20.90;64.80
1956;DHT22;978;48.314;11.562;2024-03-23T08:36:03;20.90;64.90
1956;DHT22;978;48.314;11.562;2024-03-23T08:38:31;20.90;65.40
1956;DHT22;978;48.314;11.562;2024-03-23T08:41:00;20.90;65.40
1956;DHT22;978;48.314;11.562;2024-03-23T08:43:32;20.90;65.40
1956;DHT22;978;48.314;11.562;2024-03-23T08:46:04;20.90;65.40
1956;DHT22;978;48.314;11.562;2024-03-23T08:48:34;20.90;65.30
1956;DHT22;978;48.314;11.562;2024-03-23T08:51:01;20.90;65.40
1956;DHT22;978;48.314;11.562;2024-03-23T08:53:30;20.90;65.30
1956;DHT22;978;48.314;11.562;2024-03-23T08:55:58;20.90;65.40
1956;DHT22;978;48.314;11.562;2024-03-23T08:58:27;20.90;65.30
1956;DHT22;978;48.314;11.562;2024-03-23T09:01:02;20.90;64.90
1956;DHT22;978;48.314;11.562;2024-03-23T09:03:30;20.90;65.30
1956;DHT22;978;48.314;11.562;2024-03-23T09:05:58;20.90;65.30
1956;DHT22;978;48.314;11.562;2024-03-23T09:08:28;20.90;65.30
1956;DHT22;978;48.314;11.562;2024-03-23T09:10:54;20.90;66.40
1956;DHT22;978;48.314;11.562;2024-03-23T09:13:25;20.90;65.80
1956;DHT22;978;48.314;11.562;2024-03-23T09:15:52;20.90;65.70
1956;DHT22;978;48.314;11.562;2024-03-23T09:18:23;20.90;65.70
1956;DHT22;978;48.314;11.562;2024-03-23T09:20:51;20.90;65.70
1956;DHT22;978;48.314;11.562;2024-03-23T09:23:19;20.90;65.70
1956;DHT22;978;48.314;11.562;2024-03-23T09:25:46;20.90;65.70
1956;DHT22;978;48.314;11.562;2024-03-23T09:28:15;20.90;65.80
1956;DHT22;978;48.314;11.562;2024-03-23T09:30:42;20.90;65.80
1956;DHT22;978;48.314;11.562;2024-03-23T09:33:12;20.90;65.80
1956;DHT22;978;48.314;11.562;2024-03-23T09:35:43;20.90;65.80
1956;DHT22;978;48.314;11.562;2024-03-23T09:38:10;20.90;65.80
1956;DHT22;978;48.314;11.562;2024-03-23T09:40:41;20.90;66.40
1956;DHT22;978;48.314;11.562;2024-03-23T09:43:09;20.90;65.80
1956;DHT22;978;48.314;11.562;2024-03-23T09:45:39;20.90;65.80
1956;DHT22;978;48.314;11.562;2024-03-23T09:48:08;20.90;65.70
1956;DHT22;978;48.314;11.562;2024-03-23T09:50:37;20.90;65.60
1956;DHT22;978;48.314;11.562;2024-03-23T09:53:09;20.90;65.50
1956;DHT22;978;48.314;11.562;2024-03-23T09:55:36;20.90;65.10
1956;DHT22;978;48.314;11.562;2024-03-23T09:58:05;20.90;64.40
1956;DHT22;978;48.314;11.562;2024-03-23T10:00:32;20.90;64.20
1956;DHT22;978;48.314;11.562;2024-03-23T10:03:01;20.90;64.00
1956;DHT22;978;48.314;11.562;2024-03-23T10:05:31;20.90;64.50
1956;DHT22;978;48.314;11.562;2024-03-23T10:08:02;20.90;64.70
1956;DHT22;978;48.314;11.562;2024-03-23T10:10:46;20.90;64.90
1956;DHT22;978;48.314;11.562;2024-03-23T10:13:24;20.90;65.00
1956;DHT22;978;48.314;11.562;2024-03-23T10:15:56;20.90;64.00
1956;DHT22;978;48.314;11.562;2024-03-23T10:18:24;20.90;62.50
1956;DHT22;978;48.314;11.562;2024-03-23T10:21:08;20.90;62.60
1956;DHT22;978;48.314;11.562;2024-03-23T10:23:36;20.90;63.30
1956;DHT22;978;48.314;11.562;2024-03-23T10:26:18;20.90;64.50
1956;DHT22;978;48.314;11.562;2024-03-23T10:28:54;20.90;64.20
1956;DHT22;978;48.314;11.562;2024-03-23T10:31:23;20.90;64.30
1956;DHT22;978;48.314;11.562;2024-03-23T10:33:51;20.90;64.80
1956;DHT22;978;48.314;11.562;2024-03-23T10:36:21;20.90;64.90
1956;DHT22;978;48.314;11.562;2024-03-23T10:38:50;20.90;64.50
1956;DHT22;978;48.314;11.562;2024-03-23T10:41:20;20.90;65.00
1956;DHT22;978;48.314;11.562;2024-03-23T10:43:48;20.90;65.10
1956;DHT22;978;48.314;11.562;2024-03-23T10:46:16;20.90;65.10
1956;DHT22;978;48.314;11.562;2024-03-23T10:48:44;20.90;65.20
1956;DHT22;978;48.314;11.562;2024-03-23T10:51:12;20.90;65.20
1956;DHT22;978;48.314;11.562;2024-03-23T10:53:41;20.90;65.20
1956;DHT22;978;48.314;11.562;2024-03-23T10:56:11;20.90;65.20
1956;DHT22;978;48.314;11.562;2024-03-23T10:58:43;20.90;64.60
1956;DHT22;978;48.314;11.562;2024-03-23T11:01:11;20.90;65.10
1956;DHT22;978;48.314;11.562;2024-03-23T11:03:39;20.90;65.20
1956;DHT22;978;48.314;11.562;2024-03-23T11:06:08;20.90;65.20
1956;DHT22;978;48.314;11.562;2024-03-23T11:08:36;20.90;64.70
1956;DHT22;978;48.314;11.562;2024-03-23T11:11:22;20.90;65.20
1956;DHT22;978;48.314;11.562;2024-03-23T11:13:52;20.90;65.30
1956;DHT22;978;48.314;11.562;2024-03-23T11:16:23;20.90;65.30
1956;DHT22;978;48.314;11.562;2024-03-23T11:18:51;20.90;65.30
1956;DHT22;978;48.314;11.562;2024-03-23T11:21:52;20.90;65.30
1956;DHT22;978;48.314;11.562;2024-03-23T11:24:21;20.90;65.40
1956;DHT22;978;48.314;11.562;2024-03-23T11:26:49;20.90;65.30
1956;DHT22;978;48.314;11.562;2024-03-23T11:29:18;20.90;65.30
1956;DHT22;978;48.314;11.562;2024-03-23T11:31:52;20.90;65.30
1956;DHT22;978;48.314;11.562;2024-03-23T11:34:18;20.90;65.40
1956;DHT22;978;48.314;11.562;2024-03-23T11:36:48;20.90;65.30
1956;DHT22;978;48.314;11.562;2024-03-23T11:39:16;20.90;65.40
1956;DHT22;978;48.314;11.562;2024-03-23T11:41:47;20.90;65.50
1956;DHT22;978;48.314;11.562;2024-03-23T11:44:22;20.90;65.70
1956;DHT22;978;48.314;11.562;2024-03-23T11:46:51;20.90;65.90
1956;DHT22;978;48.314;11.562;2024-03-23T11:49:24;20.90;66.10
1956;DHT22;978;48.314;11.562;2024-03-23T11:51:53;20.90;66.10
1956;DHT22;978;48.314;11.562;2024-03-23T11:54:21;20.90;66.00
1956;DHT22;978;48.314;11.562;2024-03-23T11:56:56;20.90;65.90
1956;DHT22;978;48.314;11.562;2024-03-23T11:59:37;20.90;65.90
1956;DHT22;978;48.314;11.562;2024-03-23T12:02:08;20.90;65.30
1956;DHT22;978;48.314;11.562;2024-03-23T12:04:37;20.90;63.60
1956;DHT22;978;48.314;11.562;2024-03-23T12:07:12;20.90;61.20
1956;DHT22;978;48.314;11.562;2024-03-23T12:09:40;20.90;61.70
1956;DHT22;978;48.314;11.562;2024-03-23T12:12:10;20.90;61.10
1956;DHT22;978;48.314;11.562;2024-03-23T12:14:37;20.90;61.00
1956;DHT22;978;48.314;11.562;2024-03-23T12:17:11;20.90;60.90
1956;DHT22;978;48.314;11.562;2024-03-23T12:19:39;20.90;61.60
1956;DHT22;978;48.314;11.562;2024-03-23T12:22:07;20.90;61.10
1956;DHT22;978;48.314;11.562;2024-03-23T12:24:35;20.90;60.50
1956;DHT22;978;48.314;11.562;2024-03-23T12:27:10;20.90;60.90
1956;DHT22;978;48.314;11.562;2024-03-23T12:29:38;20.90;62.40
1956;DHT22;978;48.314;11.562;2024-03-23T12:32:08;20.90;62.90
1956;DHT22;978;48.314;11.562;2024-03-23T12:34:35;20.90;63.50
1956;DHT22;978;48.314;11.562;2024-03-23T12:37:04;20.90;63.70
1956;DHT22;978;48.314;11.562;2024-03-23T12:39:32;20.90;63.80
1956;DHT22;978;48.314;11.562;2024-03-23T12:42:02;20.90;63.80
1956;DHT22;978;48.314;11.562;2024-03-23T12:44:28;20.90;63.50
1956;DHT22;978;48.314;11.562;2024-03-23T12:47:03;20.90;62.90
1956;DHT22;978;48.314;11.562;2024-03-23T12:49:30;20.90;62.90
1956;DHT22;978;48.314;11.562;2024-03-23T12:51:59;20.90;63.40
1956;DHT22;978;48.314;11.562;2024-03-23T12:54:26;20.90;63.10
1956;DHT22;978;48.314;11.562;2024-03-23T12:56:54;20.90;63.00
1956;DHT22;978;48.314;11.562;2024-03-23T12:59:22;20.90;63.40
1956;DHT22;978;48.314;11.562;2024-03-23T13:01:50;20.90;63.50
1956;DHT22;978;48.314;11.562;2024-03-23T13:04:18;20.90;63.00
1956;DHT22;978;48.314;11.562;2024-03-23T13:06:46;20.90;63.20
1956;DHT22;978;48.314;11.562;2024-03-23T13:09:12;20.90;63.30
1956;DHT22;978;48.314;11.562;2024-03-23T13:11:42;20.90;63.10
1956;DHT22;978;48.314;11.562;2024-03-23T13:14:10;20.90;63.60
1956;DHT22;978;48.314;11.562;2024-03-23T13:16:41;20.90;63.10
1956;DHT22;978;48.314;11.562;2024-03-23T13:19:08;20.90;63.70
1956;DHT22;978;48.314;11.562;2024-03-23T13:21:37;20.90;63.10
1956;DHT22;978;48.314;11.562;2024-03-23T13:24:06;20.90;63.10
1956;DHT22;978;48.314;11.562;2024-03-23T13:26:34;20.90;63.70
1956;DHT22;978;48.314;11.562;2024-03-23T13:29:01;20.90;63.70
1956;DHT22;978;48.314;11.562;2024-03-23T13:31:30;20.90;63.80
1956;DHT22;978;48.314;11.562;2024-03-23T13:33:56;20.90;63.80
1956;DHT22;978;48.314;11.562;2024-03-23T13:36:24;20.90;63.80
1956;DHT22;978;48.314;11.562;2024-03-23T13:38:53;20.90;63.80
1956;DHT22;978;48.314;11.562;2024-03-23T13:41:21;20.90;63.70
1956;DHT22;978;48.314;11.562;2024-03-23T13:43:47;20.90;63.70
1956;DHT22;978;48.314;11.562;2024-03-23T13:46:19;20.90;63.80
1956;DHT22;978;48.314;11.562;2024-03-23T13:48:46;20.90;63.80
1956;DHT22;978;48.314;11.562;2024-03-23T13:51:23;20.90;63.40
1956;DHT22;978;48.314;11.562;2024-03-23T13:53:53;20.90;64.00
1956;DHT22;978;48.314;11.562;2024-03-23T13:56:23;20.90;64.00
1956;DHT22;978;48.314;11.562;2024-03-23T13:58:50;20.90;64.00
1956;DHT22;978;48.314;11.562;2024-03-23T14:01:18;20.90;64.00
1956;DHT22;978;48.314;11.562;2024-03-23T14:03:44;20.90;64.00
1956;DHT22;978;48.314;11.562;2024-03-23T14:06:11;20.90;64.00
1956;DHT22;978;48.314;11.562;2024-03-23T14:08:38;20.90;63.90
1956;DHT22;978;48.314;11.562;2024-03-23T14:11:07;20.90;64.00
1956;DHT22;978;48.314;11.562;2024-03-23T14:13:35;20.90;64.00
1956;DHT22;978;48.314;11.562;2024-03-23T14:16:04;20.90;64.10
1956;DHT22;978;48.314;11.562;2024-03-23T14:18:31;20.90;64.10
1956;DHT22;978;48.314;11.562;2024-03-23T14:21:00;20.90;64.10
1956;DHT22;978;48.314;11.562;2024-03-23T14:23:30;20.90;64.20
1956;DHT22;978;48.314;11.562;2024-03-23T14:26:00;20.90;64.20
1956;DHT22;978;48.314;11.562;2024-03-23T14:28:31;20.90;64.20
1956;DHT22;978;48.314;11.562;2024-03-23T14:30:58;20.90;64.10
1956;DHT22;978;48.314;11.562;2024-03-23T14:33:30;20.90;63.70
1956;DHT22;978;48.314;11.562;2024-03-23T14:36:01;20.90;64.20
1956;DHT22;978;48.314;11.562;2024-03-23T14:38:29;20.90;64.20
1956;DHT22;978;48.314;11.562;2024-03-23T14:40:58;20.90;64.30
1956;DHT22;978;48.314;11.562;2024-03-23T14:43:26;20.90;64.30
1956;DHT22;978;48.314;11.562;2024-03-23T14:46:10;20.90;64.40
1956;DHT22;978;48.314;11.562;2024-03-23T14:48:42;20.90;64.30
1956;DHT22;978;48.314;11.562;2024-03-23T14:51:10;20.90;64.40
1956;DHT22;978;48.314;11.562;2024-03-23T14:53:40;20.90;64.40
1956;DHT22;978;48.314;11.562;2024-03-23T14:56:09;20.90;64.40
1956;DHT22;978;48.314;11.562;2024-03-23T14:58:39;20.90;64.40
1956;DHT22;978;48.314;11.562;2024-03-23T15:01:05;20.90;64.50
1956;DHT22;978;48.314;11.562;2024-03-23T15:03:37;20.90;64.50
1956;DHT22;978;48.314;11.562;2024-03-23T15:06:05;20.90;64.50
1956;DHT22;978;48.314;11.562;2024-03-23T15:08:35;20.90;64.50
1956;DHT22;978;48.314;11.562;2024-03-23T15:11:03;20.90;64.60
1956;DHT22;978;48.314;11.562;2024-03-23T15:13:33;20.90;64.60
1956;DHT22;978;48.314;11.562;2024-03-23T15:16:00;20.90;64.60
1956;DHT22;978;48.314;11.562;2024-03-23T15:18:30;20.90;64.60
1956;DHT22;978;48.314;11.562;2024-03-23T15:20:59;20.90;64.10
1956;DHT22;978;48.314;11.562;2024-03-23T15:23:28;20.90;64.70
1956;DHT22;978;48.314;11.562;2024-03-23T15:25:55;20.90;64.70
1956;DHT22;978;48.314;11.562;2024-03-23T15:28:23;20.90;64.70
1956;DHT22;978;48.314;11.562;2024-03-23T15:30:57;20.90;64.70
1956;DHT22;978;48.314;11.562;2024-03-23T15:33:26;20.90;64.70
1956;DHT22;978;48.314;11.562;2024-03-23T15:35:51;20.90;64.70
1956;DHT22;978;48.314;11.562;2024-03-23T15:38:26;20.90;64.70
1956;DHT22;978;48.314;11.562;2024-03-23T15:40:52;20.90;64.80
1956;DHT22;978;48.314;11.562;2024-03-23T15:43:23;20.90;64.80
1956;DHT22;978;48.314;11.562;2024-03-23T15:45:57;20.90;64.80
1956;DHT22;978;48.314;11.562;2024-03-23T15:48:26;20.90;64.80
1956;DHT22;978;48.314;11.562;2024-03-23T15:50:54;20.90;64.80
1956;DHT22;978;48.314;11.562;2024-03-23T15:53:26;20.90;65.50
1956;DHT22;978;48.314;11.562;2024-03-23T15:55:55;20.90;64.30
1956;DHT22;978;48.314;11.562;2024-03-23T15:58:24;20.90;64.90
1956;DHT22;978;48.314;11.562;2024-03-23T16:00:55;20.90;64.90
1956;DHT22;978;48.314;11.562;2024-03-23T16:03:23;20.90;64.90
1956;DHT22;978;48.314;11.562;2024-03-23T16:05:56;20.90;64.90
1956;DHT22;978;48.314;11.562;2024-03-23T16:08:27;20.90;64.90
1956;DHT22;978;48.314;11.562;2024-03-23T16:10:53;20.90;64.90
1956;DHT22;978;48.314;11.562;2024-03-23T16:13:21;20.90;65.00
1956;DHT22;978;48.314;11.562;2024-03-23T16:15:54;20.90;65.00
1956;DHT22;978;48.314;11.562;2024-03-23T16:18:23;20.90;65.00
1956;DHT22;978;48.314;11.562;2024-03-23T16:20:58;18.80;63.80
1956;DHT22;978;48.314;11.562;2024-03-23T16:23:28;20.90;65.60
1956;DHT22;978;48.314;11.562;2024-03-23T16:25:56;20.90;65.00
1956;DHT22;978;48.314;11.562;2024-03-23T16:28:25;20.80;65.00
1956;DHT22;978;48.314;11.562;2024-03-23T16:30:58;20.90;65.00
1956;DHT22;978;48.314;11.562;2024-03-23T16:33:27;20.90;65.00
1956;DHT22;978;48.314;11.562;2024-03-23T16:36:01;20.90;65.00
1956;DHT22;978;48.314;11.562;2024-03-23T16:38:35;20.90;65.60
1956;DHT22;978;48.314;11.562;2024-03-23T16:41:03;20.80;65.00
1956;DHT22;978;48.314;11.562;2024-03-23T16:43:33;20.90;65.00
1956;DHT22;978;48.314;11.562;2024-03-23T16:46:02;20.90;65.00
1956;DHT22;978;48.314;11.562;2024-03-23T16:48:31;20.90;65.00
1956;DHT22;978;48.314;11.562;2024-03-23T16:50:59;20.90;65.10
1956;DHT22;978;48.314;11.562;2024-03-23T16:53:32;20.90;65.00
1956;DHT22;978;48.314;11.562;2024-03-23T16:56:01;20.90;65.10
1956;DHT22;978;48.314;11.562;2024-03-23T16:58:34;20.90;65.10
1956;DHT22;978;48.314;11.562;2024-03-23T17:01:03;20.90;65.10
1956;DHT22;978;48.314;11.562;2024-03-23T17:03:31;20.90;65.10
1956;DHT22;978;48.314;11.562;2024-03-23T17:05:58;20.90;65.10
1956;DHT22;978;48.314;11.562;2024-03-23T17:08:27;20.90;65.10
1956;DHT22;978;48.314;11.562;2024-03-23T17:10:58;20.90;64.60
1956;DHT22;978;48.314;11.562;2024-03-23T17:13:28;20.80;64.60